Overview Statistics Trail Chart Weather Telemetry Raw packets
 

This is the latest recevied weather packets stored in our database for station/object K8RRT. If no packets are shown the sender has not sent any weather packets the latest 10 day(s).

<< 77 78 79 80 81 82 83 >>
Time Temp. Humidity Pressure Rain* Wind** Luminosity Snow
1788053857 22.78° C 96% 1015.9 hPa 0 mm - 0 W/m² -
1788053552 22.78° C 96% 1016.1 hPa 0 mm - 0 W/m² -
1788053247 23.33° C 96% 1016 hPa 0 mm - 0 W/m² -
1788052943 23.33° C 95% 1015.9 hPa 0 mm - 0 W/m² -
1788052638 23.33° C 95% 1016 hPa 0 mm - 0 W/m² -
1788052328 23.33° C 95% 1015.9 hPa 0 mm - 0 W/m² -
1788052023 23.33° C 94% 1016 hPa 0 mm - 0 W/m² -
1788051717 23.33° C 93% 1015.7 hPa 0 mm - 0 W/m² -
1788051416 23.89° C 93% 1015.9 hPa 0 mm - 0 W/m² -
1788051115 23.89° C 93% 1015.7 hPa 0 mm - 0 W/m² -
1788050814 23.89° C 92% 1015.7 hPa 0 mm - 0 W/m² -
1788050504 23.89° C 91% 1015.6 hPa 0 mm - 0 W/m² -
1788050199 24.44° C 91% 1015.6 hPa 0 mm - 0 W/m² -
1788049893 24.44° C 90% 1015.7 hPa 0 mm - 0 W/m² -
1788049592 25° C 89% 1015.5 hPa 0 mm - 0 W/m² -
1788049288 25° C 88% 1015.5 hPa 0 mm - 0 W/m² -
1788048987 25° C 87% 1015.5 hPa 0 mm - 0 W/m² -
1788048684 25° C 86% 1015.5 hPa 0 mm - 0 W/m² -
1788048382 25.56° C 86% 1015.6 hPa 0 mm - 0 W/m² -
1788048081 25.56° C 86% 1015.6 hPa 0 mm - 1 W/m² -
1788047778 26.11° C 84% 1015.6 hPa 0 mm - 3 W/m² -
1788047472 26.67° C 83% 1015.5 hPa 0 mm - 5 W/m² -
1788047168 27.78° C 79% 1015.4 hPa 0 mm - 10 W/m² -
1788046862 28.33° C 77% 1015.2 hPa 0 mm - 13 W/m² -
1788046561 28.89° C 75% 1015.2 hPa 0 mm - 17 W/m² -

* Rain latest hour (hover to see other rain measurements)
** Current wind speed in m/s (hover to see current wind gust speed)